LSI weather

Sumburgh Airport
Lerwick, Scotland, United Kingdom

Public forecast

Using degrees Celsius for public forecast. Weather courtesy of forecast.io.

Current aviation weather report (METAR) for Sumburgh Airport

Retrieved 2019/10/21 22:20 UTC (0 seconds ago):

EGPB 212220Z AUTO 23028KT 8000 -RA OVC016/// 10/08 Q1008

Closest aviation forecast (TAF) to Sumburgh Airport

Forecast is more than 12 hours old.

Closest forecast is Scatsta Airport, 33.3 nm (61.6 km) N. Retrieved 2013/04/29 03:39 UTC (6 years ago):

TAF TAF EGPM 290337Z 2903/2915 22005KT 9999 SCT030 PROB30 TEMPO 2903/2906 7000 SHRAGS BECMG 2906/2909 32015KT PROB40 TEMPO 2906/2915 6000 SHRA SHGS BKN012CB